sensor_id;sensor_type;location;lat;lon;timestamp;P1;durP1;ratioP1;P2;durP2;ratioP2
10934;SDS011;5520;45.752;4.874;2023-08-20T00:00:03;4.28;;;3.55;;
10934;SDS011;5520;45.752;4.874;2023-08-20T00:02:33;6.78;;;3.80;;
10934;SDS011;5520;45.752;4.874;2023-08-20T00:05:03;3.80;;;3.20;;
10934;SDS011;5520;45.752;4.874;2023-08-20T00:07:32;6.53;;;3.50;;
10934;SDS011;5520;45.752;4.874;2023-08-20T00:10:01;5.47;;;3.47;;
10934;SDS011;5520;45.752;4.874;2023-08-20T00:12:30;5.63;;;3.33;;
10934;SDS011;5520;45.752;4.874;2023-08-20T00:14:58;3.30;;;3.00;;
10934;SDS011;5520;45.752;4.874;2023-08-20T00:17:32;5.93;;;3.45;;
10934;SDS011;5520;45.752;4.874;2023-08-20T00:20:00;4.82;;;3.65;;
10934;SDS011;5520;45.752;4.874;2023-08-20T00:22:30;6.45;;;3.72;;
10934;SDS011;5520;45.752;4.874;2023-08-20T00:24:58;4.07;;;3.30;;
10934;SDS011;5520;45.752;4.874;2023-08-20T00:27:27;3.20;;;3.00;;
10934;SDS011;5520;45.752;4.874;2023-08-20T00:29:55;3.30;;;3.10;;
10934;SDS011;5520;45.752;4.874;2023-08-20T00:32:23;4.13;;;2.95;;
10934;SDS011;5520;45.752;4.874;2023-08-20T00:34:51;4.97;;;2.95;;
10934;SDS011;5520;45.752;4.874;2023-08-20T00:37:19;3.90;;;3.08;;
10934;SDS011;5520;45.752;4.874;2023-08-20T00:39:47;7.28;;;3.42;;
10934;SDS011;5520;45.752;4.874;2023-08-20T00:42:15;5.18;;;3.05;;
10934;SDS011;5520;45.752;4.874;2023-08-20T00:44:44;4.00;;;2.88;;
10934;SDS011;5520;45.752;4.874;2023-08-20T00:47:12;3.35;;;3.08;;
10934;SDS011;5520;45.752;4.874;2023-08-20T00:49:40;3.55;;;3.17;;
10934;SDS011;5520;45.752;4.874;2023-08-20T00:52:08;5.45;;;3.47;;
10934;SDS011;5520;45.752;4.874;2023-08-20T00:54:36;7.07;;;3.22;;
10934;SDS011;5520;45.752;4.874;2023-08-20T00:57:04;4.28;;;3.67;;
10934;SDS011;5520;45.752;4.874;2023-08-20T00:59:32;4.25;;;3.08;;
10934;SDS011;5520;45.752;4.874;2023-08-20T01:02:01;4.38;;;3.15;;
10934;SDS011;5520;45.752;4.874;2023-08-20T01:04:29;4.32;;;3.35;;
10934;SDS011;5520;45.752;4.874;2023-08-20T01:07:00;4.35;;;3.28;;
10934;SDS011;5520;45.752;4.874;2023-08-20T01:09:33;3.42;;;3.10;;
10934;SDS011;5520;45.752;4.874;2023-08-20T01:12:04;5.63;;;3.58;;
10934;SDS011;5520;45.752;4.874;2023-08-20T01:14:33;7.50;;;3.15;;
10934;SDS011;5520;45.752;4.874;2023-08-20T01:17:03;4.22;;;3.78;;
10934;SDS011;5520;45.752;4.874;2023-08-20T01:19:31;8.32;;;3.60;;
10934;SDS011;5520;45.752;4.874;2023-08-20T01:22:18;3.90;;;3.30;;
10934;SDS011;5520;45.752;4.874;2023-08-20T01:24:54;6.32;;;3.22;;
10934;SDS011;5520;45.752;4.874;2023-08-20T01:27:28;4.60;;;3.60;;
10934;SDS011;5520;45.752;4.874;2023-08-20T01:30:00;4.05;;;3.30;;
10934;SDS011;5520;45.752;4.874;2023-08-20T01:32:29;7.35;;;3.10;;
10934;SDS011;5520;45.752;4.874;2023-08-20T01:34:57;4.70;;;3.15;;
10934;SDS011;5520;45.752;4.874;2023-08-20T01:37:25;3.78;;;3.40;;
10934;SDS011;5520;45.752;4.874;2023-08-20T01:39:52;4.18;;;3.75;;
10934;SDS011;5520;45.752;4.874;2023-08-20T01:42:20;5.20;;;3.30;;
10934;SDS011;5520;45.752;4.874;2023-08-20T01:44:48;4.65;;;3.83;;
10934;SDS011;5520;45.752;4.874;2023-08-20T01:47:17;5.25;;;3.60;;
10934;SDS011;5520;45.752;4.874;2023-08-20T01:49:45;6.25;;;3.65;;
10934;SDS011;5520;45.752;4.874;2023-08-20T01:52:12;3.92;;;3.28;;
10934;SDS011;5520;45.752;4.874;2023-08-20T01:54:40;4.20;;;3.80;;
10934;SDS011;5520;45.752;4.874;2023-08-20T01:57:08;4.72;;;3.63;;
10934;SDS011;5520;45.752;4.874;2023-08-20T01:59:36;4.82;;;3.30;;
10934;SDS011;5520;45.752;4.874;2023-08-20T02:02:04;5.88;;;3.88;;
10934;SDS011;5520;45.752;4.874;2023-08-20T02:04:34;3.53;;;3.20;;
10934;SDS011;5520;45.752;4.874;2023-08-20T02:07:01;3.58;;;3.28;;
10934;SDS011;5520;45.752;4.874;2023-08-20T02:09:29;3.65;;;3.35;;
10934;SDS011;5520;45.752;4.874;2023-08-20T02:11:57;4.13;;;3.50;;
10934;SDS011;5520;45.752;4.874;2023-08-20T02:14:24;4.78;;;3.03;;
10934;SDS011;5520;45.752;4.874;2023-08-20T02:16:53;6.80;;;3.70;;
10934;SDS011;5520;45.752;4.874;2023-08-20T02:19:21;3.53;;;3.17;;
10934;SDS011;5520;45.752;4.874;2023-08-20T02:21:50;6.10;;;3.45;;
10934;SDS011;5520;45.752;4.874;2023-08-20T02:24:18;3.83;;;3.53;;
10934;SDS011;5520;45.752;4.874;2023-08-20T02:26:45;5.88;;;3.80;;
10934;SDS011;5520;45.752;4.874;2023-08-20T02:29:13;3.75;;;3.40;;
10934;SDS011;5520;45.752;4.874;2023-08-20T02:31:41;3.90;;;3.40;;
10934;SDS011;5520;45.752;4.874;2023-08-20T02:34:08;6.25;;;4.38;;
10934;SDS011;5520;45.752;4.874;2023-08-20T02:36:36;4.18;;;3.88;;
10934;SDS011;5520;45.752;4.874;2023-08-20T02:39:05;4.22;;;3.80;;
10934;SDS011;5520;45.752;4.874;2023-08-20T02:41:34;3.97;;;3.55;;
10934;SDS011;5520;45.752;4.874;2023-08-20T02:44:02;4.25;;;3.85;;
10934;SDS011;5520;45.752;4.874;2023-08-20T02:46:30;3.55;;;3.25;;
10934;SDS011;5520;45.752;4.874;2023-08-20T02:48:58;4.22;;;3.60;;
10934;SDS011;5520;45.752;4.874;2023-08-20T02:51:25;4.82;;;3.60;;
10934;SDS011;5520;45.752;4.874;2023-08-20T02:53:53;3.90;;;3.60;;
10934;SDS011;5520;45.752;4.874;2023-08-20T02:56:22;5.55;;;3.72;;
10934;SDS011;5520;45.752;4.874;2023-08-20T02:58:50;6.18;;;3.42;;
10934;SDS011;5520;45.752;4.874;2023-08-20T03:01:18;7.22;;;4.15;;
10934;SDS011;5520;45.752;4.874;2023-08-20T03:03:46;3.53;;;3.15;;
10934;SDS011;5520;45.752;4.874;2023-08-20T03:06:14;6.63;;;3.40;;
10934;SDS011;5520;45.752;4.874;2023-08-20T03:08:42;3.78;;;3.25;;
10934;SDS011;5520;45.752;4.874;2023-08-20T03:11:10;4.07;;;3.40;;
10934;SDS011;5520;45.752;4.874;2023-08-20T03:13:39;5.85;;;3.85;;
10934;SDS011;5520;45.752;4.874;2023-08-20T03:16:06;4.40;;;4.00;;
10934;SDS011;5520;45.752;4.874;2023-08-20T03:18:34;3.70;;;3.40;;
10934;SDS011;5520;45.752;4.874;2023-08-20T03:21:02;4.10;;;3.70;;
10934;SDS011;5520;45.752;4.874;2023-08-20T03:23:30;4.30;;;3.90;;
10934;SDS011;5520;45.752;4.874;2023-08-20T03:25:58;6.95;;;3.88;;
10934;SDS011;5520;45.752;4.874;2023-08-20T03:28:25;4.93;;;3.40;;
10934;SDS011;5520;45.752;4.874;2023-08-20T03:30:55;4.10;;;3.30;;
10934;SDS011;5520;45.752;4.874;2023-08-20T03:33:22;6.20;;;3.85;;
10934;SDS011;5520;45.752;4.874;2023-08-20T03:35:50;4.03;;;3.42;;
10934;SDS011;5520;45.752;4.874;2023-08-20T03:38:18;5.00;;;3.65;;
10934;SDS011;5520;45.752;4.874;2023-08-20T03:40:45;4.13;;;3.67;;
10934;SDS011;5520;45.752;4.874;2023-08-20T03:43:13;6.15;;;3.40;;
10934;SDS011;5520;45.752;4.874;2023-08-20T03:45:41;6.28;;;4.13;;
10934;SDS011;5520;45.752;4.874;2023-08-20T03:48:10;3.88;;;3.58;;
10934;SDS011;5520;45.752;4.874;2023-08-20T03:50:38;6.80;;;4.15;;
10934;SDS011;5520;45.752;4.874;2023-08-20T03:53:06;6.03;;;3.55;;
10934;SDS011;5520;45.752;4.874;2023-08-20T03:55:33;3.53;;;3.20;;
10934;SDS011;5520;45.752;4.874;2023-08-20T03:58:01;3.80;;;3.37;;
10934;SDS011;5520;45.752;4.874;2023-08-20T04:00:29;5.57;;;3.93;;
10934;SDS011;5520;45.752;4.874;2023-08-20T04:02:57;3.73;;;3.33;;
10934;SDS011;5520;45.752;4.874;2023-08-20T04:05:26;5.07;;;3.70;;
10934;SDS011;5520;45.752;4.874;2023-08-20T04:07:54;5.33;;;3.40;;
10934;SDS011;5520;45.752;4.874;2023-08-20T04:10:22;4.50;;;4.00;;
10934;SDS011;5520;45.752;4.874;2023-08-20T04:12:49;9.20;;;4.17;;
10934;SDS011;5520;45.752;4.874;2023-08-20T04:15:17;3.67;;;3.33;;
10934;SDS011;5520;45.752;4.874;2023-08-20T04:17:45;3.70;;;3.40;;
10934;SDS011;5520;45.752;4.874;2023-08-20T04:20:13;6.47;;;3.77;;
10934;SDS011;5520;45.752;4.874;2023-08-20T04:22:43;4.13;;;3.40;;
10934;SDS011;5520;45.752;4.874;2023-08-20T04:25:10;3.90;;;3.40;;
10934;SDS011;5520;45.752;4.874;2023-08-20T04:27:39;5.50;;;3.77;;
10934;SDS011;5520;45.752;4.874;2023-08-20T04:30:07;3.97;;;3.57;;
10934;SDS011;5520;45.752;4.874;2023-08-20T04:32:35;4.23;;;3.67;;
10934;SDS011;5520;45.752;4.874;2023-08-20T04:35:02;4.87;;;3.60;;
10934;SDS011;5520;45.752;4.874;2023-08-20T04:37:30;3.80;;;3.40;;
10934;SDS011;5520;45.752;4.874;2023-08-20T04:40:00;3.90;;;3.50;;
10934;SDS011;5520;45.752;4.874;2023-08-20T04:42:27;4.73;;;3.40;;
10934;SDS011;5520;45.752;4.874;2023-08-20T04:44:55;4.43;;;3.60;;
10934;SDS011;5520;45.752;4.874;2023-08-20T04:47:23;4.70;;;3.83;;
10934;SDS011;5520;45.752;4.874;2023-08-20T04:49:51;3.70;;;3.40;;
10934;SDS011;5520;45.752;4.874;2023-08-20T04:52:19;5.27;;;3.23;;
10934;SDS011;5520;45.752;4.874;2023-08-20T04:54:47;6.17;;;3.67;;
10934;SDS011;5520;45.752;4.874;2023-08-20T04:57:16;6.20;;;3.43;;
10934;SDS011;5520;45.752;4.874;2023-08-20T04:59:44;3.83;;;3.43;;
10934;SDS011;5520;45.752;4.874;2023-08-20T05:02:12;4.70;;;3.40;;
10934;SDS011;5520;45.752;4.874;2023-08-20T05:04:40;3.63;;;3.33;;
10934;SDS011;5520;45.752;4.874;2023-08-20T05:07:08;5.63;;;3.50;;
10934;SDS011;5520;45.752;4.874;2023-08-20T05:09:35;4.60;;;4.03;;
10934;SDS011;5520;45.752;4.874;2023-08-20T05:12:03;5.60;;;3.67;;
10934;SDS011;5520;45.752;4.874;2023-08-20T05:17:01;4.73;;;3.87;;
10934;SDS011;5520;45.752;4.874;2023-08-20T05:19:29;4.00;;;3.60;;
10934;SDS011;5520;45.752;4.874;2023-08-20T05:21:57;3.70;;;3.40;;
10934;SDS011;5520;45.752;4.874;2023-08-20T05:24:26;3.90;;;3.60;;
10934;SDS011;5520;45.752;4.874;2023-08-20T05:27:06;4.80;;;3.73;;
10934;SDS011;5520;45.752;4.874;2023-08-20T05:29:34;6.90;;;3.67;;
10934;SDS011;5520;45.752;4.874;2023-08-20T05:32:04;4.27;;;3.70;;
10934;SDS011;5520;45.752;4.874;2023-08-20T05:34:32;3.70;;;3.40;;
10934;SDS011;5520;45.752;4.874;2023-08-20T05:37:00;5.33;;;3.53;;
10934;SDS011;5520;45.752;4.874;2023-08-20T05:39:29;3.50;;;3.20;;
10934;SDS011;5520;45.752;4.874;2023-08-20T05:41:57;4.57;;;3.87;;
10934;SDS011;5520;45.752;4.874;2023-08-20T05:44:24;5.90;;;3.60;;
10934;SDS011;5520;45.752;4.874;2023-08-20T05:46:52;3.87;;;3.50;;
10934;SDS011;5520;45.752;4.874;2023-08-20T05:49:21;4.20;;;3.77;;
10934;SDS011;5520;45.752;4.874;2023-08-20T05:51:49;4.47;;;3.50;;
10934;SDS011;5520;45.752;4.874;2023-08-20T05:54:17;4.10;;;3.57;;
10934;SDS011;5520;45.752;4.874;2023-08-20T05:56:44;6.60;;;3.87;;
10934;SDS011;5520;45.752;4.874;2023-08-20T05:59:12;4.90;;;4.00;;
10934;SDS011;5520;45.752;4.874;2023-08-20T06:01:40;6.03;;;3.53;;
10934;SDS011;5520;45.752;4.874;2023-08-20T06:04:08;4.20;;;3.40;;
10934;SDS011;5520;45.752;4.874;2023-08-20T06:06:37;3.40;;;3.10;;
10934;SDS011;5520;45.752;4.874;2023-08-20T06:09:05;3.87;;;3.57;;
10934;SDS011;5520;45.752;4.874;2023-08-20T06:11:35;5.03;;;3.63;;
10934;SDS011;5520;45.752;4.874;2023-08-20T06:14:03;5.70;;;3.50;;
10934;SDS011;5520;45.752;4.874;2023-08-20T06:16:31;4.23;;;3.87;;
10934;SDS011;5520;45.752;4.874;2023-08-20T06:18:59;5.67;;;3.70;;
10934;SDS011;5520;45.752;4.874;2023-08-20T06:21:29;7.20;;;4.27;;
10934;SDS011;5520;45.752;4.874;2023-08-20T06:23:58;4.50;;;4.10;;
10934;SDS011;5520;45.752;4.874;2023-08-20T06:26:26;4.50;;;3.97;;
10934;SDS011;5520;45.752;4.874;2023-08-20T06:28:53;5.53;;;4.00;;
10934;SDS011;5520;45.752;4.874;2023-08-20T06:31:21;4.23;;;3.80;;
10934;SDS011;5520;45.752;4.874;2023-08-20T06:33:49;6.47;;;4.53;;
10934;SDS011;5520;45.752;4.874;2023-08-20T06:36:17;4.27;;;3.47;;
10934;SDS011;5520;45.752;4.874;2023-08-20T06:38:46;3.73;;;3.40;;
10934;SDS011;5520;45.752;4.874;2023-08-20T06:41:15;4.07;;;3.63;;
10934;SDS011;5520;45.752;4.874;2023-08-20T06:43:43;4.77;;;3.77;;
10934;SDS011;5520;45.752;4.874;2023-08-20T06:46:10;4.17;;;3.47;;
10934;SDS011;5520;45.752;4.874;2023-08-20T06:48:38;5.70;;;3.50;;
10934;SDS011;5520;45.752;4.874;2023-08-20T06:51:12;4.33;;;3.87;;
10934;SDS011;5520;45.752;4.874;2023-08-20T06:53:40;3.57;;;3.27;;
10934;SDS011;5520;45.752;4.874;2023-08-20T06:56:08;4.90;;;4.13;;
10934;SDS011;5520;45.752;4.874;2023-08-20T06:58:37;3.63;;;3.33;;
10934;SDS011;5520;45.752;4.874;2023-08-20T07:01:05;3.90;;;3.60;;
10934;SDS011;5520;45.752;4.874;2023-08-20T07:03:36;6.70;;;4.03;;
10934;SDS011;5520;45.752;4.874;2023-08-20T07:06:04;6.07;;;3.70;;
10934;SDS011;5520;45.752;4.874;2023-08-20T07:08:32;5.30;;;4.07;;
10934;SDS011;5520;45.752;4.874;2023-08-20T07:11:00;10.23;;;3.80;;
10934;SDS011;5520;45.752;4.874;2023-08-20T07:13:28;6.47;;;4.10;;
10934;SDS011;5520;45.752;4.874;2023-08-20T07:15:57;3.97;;;3.53;;
10934;SDS011;5520;45.752;4.874;2023-08-20T07:18:25;5.03;;;3.80;;
10934;SDS011;5520;45.752;4.874;2023-08-20T07:20:52;6.27;;;4.40;;
10934;SDS011;5520;45.752;4.874;2023-08-20T07:23:20;5.57;;;3.83;;
10934;SDS011;5520;45.752;4.874;2023-08-20T07:25:48;4.63;;;3.67;;
10934;SDS011;5520;45.752;4.874;2023-08-20T07:28:18;5.87;;;4.20;;
10934;SDS011;5520;45.752;4.874;2023-08-20T07:31:08;5.07;;;3.83;;
10934;SDS011;5520;45.752;4.874;2023-08-20T07:33:36;4.63;;;4.00;;
10934;SDS011;5520;45.752;4.874;2023-08-20T07:36:04;4.30;;;3.80;;
10934;SDS011;5520;45.752;4.874;2023-08-20T07:38:31;4.00;;;3.63;;
10934;SDS011;5520;45.752;4.874;2023-08-20T07:40:59;4.07;;;3.70;;
10934;SDS011;5520;45.752;4.874;2023-08-20T07:43:27;4.07;;;3.63;;
10934;SDS011;5520;45.752;4.874;2023-08-20T07:45:55;4.30;;;3.77;;
10934;SDS011;5520;45.752;4.874;2023-08-20T07:48:24;4.50;;;4.00;;
10934;SDS011;5520;45.752;4.874;2023-08-20T07:50:52;4.80;;;4.23;;
10934;SDS011;5520;45.752;4.874;2023-08-20T07:53:19;6.37;;;4.60;;
10934;SDS011;5520;45.752;4.874;2023-08-20T07:55:47;4.50;;;3.97;;
10934;SDS011;5520;45.752;4.874;2023-08-20T07:58:15;4.37;;;3.97;;
10934;SDS011;5520;45.752;4.874;2023-08-20T08:00:43;3.77;;;3.50;;
10934;SDS011;5520;45.752;4.874;2023-08-20T08:03:11;6.20;;;4.27;;
10934;SDS011;5520;45.752;4.874;2023-08-20T08:05:42;5.03;;;4.20;;
10934;SDS011;5520;45.752;4.874;2023-08-20T08:08:13;4.55;;;4.03;;
10934;SDS011;5520;45.752;4.874;2023-08-20T08:10:41;6.05;;;4.40;;
10934;SDS011;5520;45.752;4.874;2023-08-20T08:13:10;4.15;;;3.85;;
10934;SDS011;5520;45.752;4.874;2023-08-20T08:15:38;5.20;;;4.18;;
10934;SDS011;5520;45.752;4.874;2023-08-20T08:18:06;4.97;;;4.38;;
10934;SDS011;5520;45.752;4.874;2023-08-20T08:20:34;5.80;;;4.50;;
10934;SDS011;5520;45.752;4.874;2023-08-20T08:23:03;5.65;;;4.10;;
10934;SDS011;5520;45.752;4.874;2023-08-20T08:25:31;4.40;;;4.00;;
10934;SDS011;5520;45.752;4.874;2023-08-20T08:27:59;4.55;;;4.15;;
10934;SDS011;5520;45.752;4.874;2023-08-20T08:30:27;7.38;;;4.28;;
10934;SDS011;5520;45.752;4.874;2023-08-20T08:32:56;5.07;;;4.60;;
10934;SDS011;5520;45.752;4.874;2023-08-20T08:35:24;4.90;;;3.83;;
10934;SDS011;5520;45.752;4.874;2023-08-20T08:37:51;6.22;;;4.40;;
10934;SDS011;5520;45.752;4.874;2023-08-20T08:40:20;4.90;;;3.90;;
10934;SDS011;5520;45.752;4.874;2023-08-20T08:42:49;5.35;;;4.78;;
10934;SDS011;5520;45.752;4.874;2023-08-20T08:45:17;5.38;;;4.03;;
10934;SDS011;5520;45.752;4.874;2023-08-20T08:47:46;4.18;;;3.83;;
10934;SDS011;5520;45.752;4.874;2023-08-20T08:50:14;5.55;;;4.32;;
10934;SDS011;5520;45.752;4.874;2023-08-20T08:52:42;6.50;;;4.05;;
10934;SDS011;5520;45.752;4.874;2023-08-20T08:55:12;4.07;;;3.75;;
10934;SDS011;5520;45.752;4.874;2023-08-20T08:57:41;7.28;;;4.20;;
10934;SDS011;5520;45.752;4.874;2023-08-20T09:00:09;5.25;;;4.20;;
10934;SDS011;5520;45.752;4.874;2023-08-20T09:02:37;5.00;;;4.18;;
10934;SDS011;5520;45.752;4.874;2023-08-20T09:05:05;4.93;;;4.38;;
10934;SDS011;5520;45.752;4.874;2023-08-20T09:07:33;6.20;;;4.57;;
10934;SDS011;5520;45.752;4.874;2023-08-20T09:10:01;5.85;;;4.32;;
10934;SDS011;5520;45.752;4.874;2023-08-20T09:12:29;5.30;;;4.78;;
10934;SDS011;5520;45.752;4.874;2023-08-20T09:15:03;6.32;;;4.38;;
10934;SDS011;5520;45.752;4.874;2023-08-20T09:17:30;5.53;;;4.25;;
10934;SDS011;5520;45.752;4.874;2023-08-20T09:19:58;5.63;;;4.25;;
10934;SDS011;5520;45.752;4.874;2023-08-20T09:22:26;6.63;;;4.30;;
10934;SDS011;5520;45.752;4.874;2023-08-20T09:24:55;5.30;;;4.32;;
10934;SDS011;5520;45.752;4.874;2023-08-20T09:27:23;8.50;;;4.43;;
10934;SDS011;5520;45.752;4.874;2023-08-20T09:29:52;5.40;;;4.80;;
10934;SDS011;5520;45.752;4.874;2023-08-20T09:32:21;6.78;;;4.47;;
10934;SDS011;5520;45.752;4.874;2023-08-20T09:34:49;6.07;;;4.57;;
10934;SDS011;5520;45.752;4.874;2023-08-20T09:37:18;5.35;;;4.15;;
10934;SDS011;5520;45.752;4.874;2023-08-20T09:39:46;4.38;;;3.97;;
10934;SDS011;5520;45.752;4.874;2023-08-20T09:42:14;5.22;;;4.72;;
10934;SDS011;5520;45.752;4.874;2023-08-20T09:44:43;5.72;;;4.32;;
10934;SDS011;5520;45.752;4.874;2023-08-20T09:47:13;7.38;;;4.40;;
10934;SDS011;5520;45.752;4.874;2023-08-20T09:49:43;9.13;;;4.70;;
10934;SDS011;5520;45.752;4.874;2023-08-20T09:52:11;6.00;;;3.72;;
10934;SDS011;5520;45.752;4.874;2023-08-20T09:54:45;4.53;;;4.10;;
10934;SDS011;5520;45.752;4.874;2023-08-20T09:57:18;5.45;;;3.67;;
10934;SDS011;5520;45.752;4.874;2023-08-20T09:59:50;7.95;;;4.30;;
10934;SDS011;5520;45.752;4.874;2023-08-20T10:02:18;5.28;;;4.20;;
10934;SDS011;5520;45.752;4.874;2023-08-20T10:04:48;5.65;;;3.47;;
10934;SDS011;5520;45.752;4.874;2023-08-20T10:07:16;4.65;;;4.05;;
10934;SDS011;5520;45.752;4.874;2023-08-20T10:09:44;5.90;;;4.00;;
10934;SDS011;5520;45.752;4.874;2023-08-20T10:12:13;4.32;;;3.63;;
10934;SDS011;5520;45.752;4.874;2023-08-20T10:14:41;4.28;;;3.88;;
10934;SDS011;5520;45.752;4.874;2023-08-20T10:17:09;4.47;;;3.80;;
10934;SDS011;5520;45.752;4.874;2023-08-20T10:19:37;4.22;;;3.92;;
10934;SDS011;5520;45.752;4.874;2023-08-20T10:22:06;4.32;;;3.92;;
10934;SDS011;5520;45.752;4.874;2023-08-20T10:24:40;4.28;;;3.90;;
10934;SDS011;5520;45.752;4.874;2023-08-20T10:27:09;5.10;;;3.92;;
10934;SDS011;5520;45.752;4.874;2023-08-20T10:29:37;5.55;;;3.67;;
10934;SDS011;5520;45.752;4.874;2023-08-20T10:32:06;5.35;;;4.28;;
10934;SDS011;5520;45.752;4.874;2023-08-20T10:34:36;5.93;;;3.88;;
10934;SDS011;5520;45.752;4.874;2023-08-20T10:37:12;5.55;;;4.03;;
10934;SDS011;5520;45.752;4.874;2023-08-20T10:39:40;5.10;;;4.07;;
10934;SDS011;5520;45.752;4.874;2023-08-20T10:42:09;6.75;;;3.85;;
10934;SDS011;5520;45.752;4.874;2023-08-20T10:47:24;5.32;;;3.67;;
10934;SDS011;5520;45.752;4.874;2023-08-20T10:49:52;4.20;;;3.70;;
10934;SDS011;5520;45.752;4.874;2023-08-20T10:52:21;6.90;;;3.83;;
10934;SDS011;5520;45.752;4.874;2023-08-20T10:54:50;5.25;;;3.78;;
10934;SDS011;5520;45.752;4.874;2023-08-20T10:57:18;5.57;;;4.53;;
10934;SDS011;5520;45.752;4.874;2023-08-20T10:59:55;3.63;;;3.33;;
10934;SDS011;5520;45.752;4.874;2023-08-20T11:02:23;8.52;;;4.18;;
10934;SDS011;5520;45.752;4.874;2023-08-20T11:04:52;6.32;;;4.20;;
10934;SDS011;5520;45.752;4.874;2023-08-20T11:07:22;5.38;;;3.88;;
10934;SDS011;5520;45.752;4.874;2023-08-20T11:09:49;4.43;;;4.03;;
10934;SDS011;5520;45.752;4.874;2023-08-20T11:12:19;7.13;;;3.83;;
10934;SDS011;5520;45.752;4.874;2023-08-20T11:14:47;4.45;;;4.03;;
10934;SDS011;5520;45.752;4.874;2023-08-20T11:17:15;4.35;;;3.88;;
10934;SDS011;5520;45.752;4.874;2023-08-20T11:19:43;7.45;;;4.00;;
10934;SDS011;5520;45.752;4.874;2023-08-20T11:22:25;4.70;;;4.05;;
10934;SDS011;5520;45.752;4.874;2023-08-20T11:24:54;5.20;;;3.90;;
10934;SDS011;5520;45.752;4.874;2023-08-20T11:27:26;6.00;;;3.47;;
10934;SDS011;5520;45.752;4.874;2023-08-20T11:29:54;4.95;;;3.90;;
10934;SDS011;5520;45.752;4.874;2023-08-20T11:32:23;8.40;;;3.90;;
10934;SDS011;5520;45.752;4.874;2023-08-20T11:34:50;4.72;;;3.88;;
10934;SDS011;5520;45.752;4.874;2023-08-20T11:37:20;6.55;;;5.45;;
10934;SDS011;5520;45.752;4.874;2023-08-20T11:39:49;8.65;;;5.43;;
10934;SDS011;5520;45.752;4.874;2023-08-20T11:42:17;5.38;;;3.97;;
10934;SDS011;5520;45.752;4.874;2023-08-20T11:44:45;11.65;;;3.85;;
10934;SDS011;5520;45.752;4.874;2023-08-20T11:47:14;7.28;;;4.40;;
10934;SDS011;5520;45.752;4.874;2023-08-20T11:49:42;10.13;;;4.30;;
10934;SDS011;5520;45.752;4.874;2023-08-20T11:52:09;5.70;;;4.45;;
10934;SDS011;5520;45.752;4.874;2023-08-20T11:54:39;4.60;;;3.78;;
10934;SDS011;5520;45.752;4.874;2023-08-20T11:57:08;9.25;;;3.85;;
10934;SDS011;5520;45.752;4.874;2023-08-20T11:59:36;4.75;;;3.83;;
10934;SDS011;5520;45.752;4.874;2023-08-20T12:02:03;6.65;;;4.10;;
10934;SDS011;5520;45.752;4.874;2023-08-20T12:04:31;8.38;;;3.90;;
10934;SDS011;5520;45.752;4.874;2023-08-20T12:07:02;5.82;;;3.75;;
10934;SDS011;5520;45.752;4.874;2023-08-20T12:09:32;5.72;;;4.03;;
10934;SDS011;5520;45.752;4.874;2023-08-20T12:12:00;11.13;;;3.90;;
10934;SDS011;5520;45.752;4.874;2023-08-20T12:14:30;5.70;;;3.47;;
10934;SDS011;5520;45.752;4.874;2023-08-20T12:17:02;5.68;;;3.67;;
10934;SDS011;5520;45.752;4.874;2023-08-20T12:19:29;6.93;;;3.60;;
10934;SDS011;5520;45.752;4.874;2023-08-20T12:21:57;6.85;;;3.45;;
10934;SDS011;5520;45.752;4.874;2023-08-20T12:24:27;3.42;;;3.13;;
10934;SDS011;5520;45.752;4.874;2023-08-20T12:26:58;4.95;;;3.50;;
10934;SDS011;5520;45.752;4.874;2023-08-20T12:29:31;5.22;;;3.35;;
10934;SDS011;5520;45.752;4.874;2023-08-20T12:31:59;4.22;;;3.30;;
10934;SDS011;5520;45.752;4.874;2023-08-20T12:34:27;7.50;;;3.83;;
10934;SDS011;5520;45.752;4.874;2023-08-20T12:36:55;5.65;;;3.25;;
10934;SDS011;5520;45.752;4.874;2023-08-20T12:39:23;8.75;;;4.30;;
10934;SDS011;5520;45.752;4.874;2023-08-20T12:41:51;6.07;;;3.70;;
10934;SDS011;5520;45.752;4.874;2023-08-20T12:44:18;7.18;;;3.53;;
10934;SDS011;5520;45.752;4.874;2023-08-20T12:46:47;5.63;;;3.70;;
10934;SDS011;5520;45.752;4.874;2023-08-20T12:49:15;5.70;;;4.10;;
10934;SDS011;5520;45.752;4.874;2023-08-20T12:51:43;5.78;;;3.03;;
10934;SDS011;5520;45.752;4.874;2023-08-20T12:54:11;5.97;;;3.50;;
10934;SDS011;5520;45.752;4.874;2023-08-20T12:56:38;5.43;;;3.55;;
10934;SDS011;5520;45.752;4.874;2023-08-20T12:59:06;9.23;;;3.70;;
10934;SDS011;5520;45.752;4.874;2023-08-20T13:01:34;8.82;;;3.42;;
10934;SDS011;5520;45.752;4.874;2023-08-20T13:04:04;4.70;;;3.38;;
10934;SDS011;5520;45.752;4.874;2023-08-20T13:06:32;5.30;;;3.63;;
10934;SDS011;5520;45.752;4.874;2023-08-20T13:09:00;5.97;;;3.50;;
10934;SDS011;5520;45.752;4.874;2023-08-20T13:11:31;5.72;;;3.50;;
10934;SDS011;5520;45.752;4.874;2023-08-20T13:13:59;6.40;;;3.78;;
10934;SDS011;5520;45.752;4.874;2023-08-20T13:16:29;4.28;;;3.72;;
10934;SDS011;5520;45.752;4.874;2023-08-20T13:19:00;10.25;;;4.32;;
10934;SDS011;5520;45.752;4.874;2023-08-20T13:21:30;6.40;;;3.30;;
10934;SDS011;5520;45.752;4.874;2023-08-20T13:23:58;3.72;;;3.22;;
10934;SDS011;5520;45.752;4.874;2023-08-20T13:26:25;4.20;;;3.10;;
10934;SDS011;5520;45.752;4.874;2023-08-20T13:28:53;4.10;;;3.45;;
10934;SDS011;5520;45.752;4.874;2023-08-20T13:31:21;7.47;;;3.47;;
10934;SDS011;5520;45.752;4.874;2023-08-20T13:33:49;8.57;;;3.63;;
10934;SDS011;5520;45.752;4.874;2023-08-20T13:36:17;5.93;;;3.45;;
10934;SDS011;5520;45.752;4.874;2023-08-20T13:38:46;5.53;;;3.65;;
10934;SDS011;5520;45.752;4.874;2023-08-20T13:41:14;6.55;;;3.40;;
10934;SDS011;5520;45.752;4.874;2023-08-20T13:43:41;6.22;;;2.85;;
10934;SDS011;5520;45.752;4.874;2023-08-20T13:46:09;9.18;;;3.08;;
10934;SDS011;5520;45.752;4.874;2023-08-20T13:48:37;5.50;;;3.63;;
10934;SDS011;5520;45.752;4.874;2023-08-20T13:51:05;4.85;;;3.47;;
10934;SDS011;5520;45.752;4.874;2023-08-20T13:53:33;5.25;;;3.03;;
10934;SDS011;5520;45.752;4.874;2023-08-20T13:56:02;3.40;;;3.10;;
10934;SDS011;5520;45.752;4.874;2023-08-20T13:58:30;7.50;;;3.40;;
10934;SDS011;5520;45.752;4.874;2023-08-20T14:00:57;7.43;;;3.60;;
10934;SDS011;5520;45.752;4.874;2023-08-20T14:03:25;7.07;;;3.17;;
10934;SDS011;5520;45.752;4.874;2023-08-20T14:05:53;5.68;;;3.58;;
10934;SDS011;5520;45.752;4.874;2023-08-20T14:08:21;5.57;;;3.40;;
10934;SDS011;5520;45.752;4.874;2023-08-20T14:10:49;4.05;;;3.47;;
10934;SDS011;5520;45.752;4.874;2023-08-20T14:13:18;7.35;;;3.30;;
10934;SDS011;5520;45.752;4.874;2023-08-20T14:15:45;8.35;;;3.38;;
10934;SDS011;5520;45.752;4.874;2023-08-20T14:18:13;6.60;;;3.13;;
10934;SDS011;5520;45.752;4.874;2023-08-20T14:20:41;3.75;;;3.13;;
10934;SDS011;5520;45.752;4.874;2023-08-20T14:23:09;4.32;;;2.83;;
10934;SDS011;5520;45.752;4.874;2023-08-20T14:25:36;7.50;;;3.40;;
10934;SDS011;5520;45.752;4.874;2023-08-20T14:28:07;8.18;;;3.90;;
10934;SDS011;5520;45.752;4.874;2023-08-20T14:30:37;9.18;;;3.97;;
10934;SDS011;5520;45.752;4.874;2023-08-20T14:33:05;5.07;;;2.80;;
10934;SDS011;5520;45.752;4.874;2023-08-20T14:35:33;5.20;;;3.10;;
10934;SDS011;5520;45.752;4.874;2023-08-20T14:38:00;3.65;;;3.03;;
10934;SDS011;5520;45.752;4.874;2023-08-20T14:40:28;4.80;;;3.10;;
10934;SDS011;5520;45.752;4.874;2023-08-20T14:42:58;5.57;;;3.20;;
10934;SDS011;5520;45.752;4.874;2023-08-20T14:45:26;6.07;;;3.38;;
10934;SDS011;5520;45.752;4.874;2023-08-20T14:47:55;5.00;;;3.03;;
10934;SDS011;5520;45.752;4.874;2023-08-20T14:50:22;5.43;;;3.00;;
10934;SDS011;5520;45.752;4.874;2023-08-20T14:52:50;5.45;;;2.90;;
10934;SDS011;5520;45.752;4.874;2023-08-20T14:55:19;4.38;;;2.72;;
10934;SDS011;5520;45.752;4.874;2023-08-20T14:57:46;2.97;;;2.47;;
10934;SDS011;5520;45.752;4.874;2023-08-20T15:00:18;7.15;;;3.05;;
10934;SDS011;5520;45.752;4.874;2023-08-20T15:02:46;7.72;;;2.70;;
10934;SDS011;5520;45.752;4.874;2023-08-20T15:05:15;4.63;;;2.78;;
10934;SDS011;5520;45.752;4.874;2023-08-20T15:07:42;5.22;;;2.33;;
10934;SDS011;5520;45.752;4.874;2023-08-20T15:10:10;5.07;;;2.78;;
10934;SDS011;5520;45.752;4.874;2023-08-20T15:12:38;3.88;;;3.22;;